createdAt,value
2018-09-27T00:00:22.772Z,0
2018-09-27T00:01:30.856Z,0
2018-09-27T00:02:38.914Z,0
2018-09-27T00:03:46.973Z,0
2018-09-27T00:04:55.064Z,0
2018-09-27T00:06:03.065Z,0
2018-09-27T00:07:11.168Z,0
2018-09-27T00:08:19.228Z,0
2018-09-27T00:09:27.279Z,0
2018-09-27T00:10:35.332Z,0
2018-09-27T00:11:43.374Z,0
2018-09-27T00:12:51.440Z,0
2018-09-27T00:13:59.507Z,0
2018-09-27T00:15:07.567Z,0
2018-09-27T00:16:15.627Z,0
2018-09-27T00:17:23.673Z,0
2018-09-27T00:18:31.779Z,0
2018-09-27T00:19:39.812Z,0
2018-09-27T00:20:47.866Z,0
2018-09-27T00:21:55.918Z,0
2018-09-27T00:23:03.973Z,0
2018-09-27T00:24:12.039Z,0
2018-09-27T00:25:20.092Z,0
2018-09-27T00:26:28.166Z,0
2018-09-27T00:27:36.219Z,0
2018-09-27T00:28:44.276Z,0
2018-09-27T00:29:52.344Z,0
2018-09-27T00:31:00.400Z,0
2018-09-27T00:32:08.450Z,0
2018-09-27T00:33:16.511Z,0
2018-09-27T00:34:24.565Z,0
2018-09-27T00:35:32.606Z,0
2018-09-27T00:36:40.698Z,0
2018-09-27T00:37:48.752Z,0
2018-09-27T00:38:56.799Z,0
2018-09-27T00:40:04.861Z,0
2018-09-27T00:41:12.892Z,0
2018-09-27T00:42:20.974Z,0
2018-09-27T00:43:29.034Z,0
2018-09-27T00:44:37.094Z,0
2018-09-27T00:45:45.150Z,0
2018-09-27T00:46:53.192Z,0
2018-09-27T00:48:01.274Z,0
2018-09-27T00:49:09.335Z,0
2018-09-27T00:50:17.392Z,0
2018-09-27T00:51:25.446Z,0
2018-09-27T00:52:33.533Z,0
2018-09-27T00:53:41.559Z,0
2018-09-27T00:54:49.617Z,0
2018-09-27T00:55:57.679Z,0
2018-09-27T00:57:05.739Z,0
2018-09-27T00:58:13.794Z,0
2018-09-27T00:59:21.866Z,0
2018-09-27T01:00:29.914Z,0
2018-09-27T01:01:37.980Z,0
2018-09-27T01:02:46.027Z,0
2018-09-27T01:03:54.085Z,0
2018-09-27T01:05:02.240Z,0
2018-09-27T01:06:10.208Z,0
2018-09-27T01:07:18.272Z,0
2018-09-27T01:08:26.317Z,0
2018-09-27T01:09:34.387Z,0
2018-09-27T01:10:42.446Z,0
2018-09-27T01:11:50.531Z,0
2018-09-27T01:12:58.560Z,0
2018-09-27T01:14:06.607Z,0
2018-09-27T01:15:14.669Z,0
2018-09-27T01:16:22.702Z,0
2018-09-27T01:17:30.789Z,0
2018-09-27T01:18:38.849Z,0
2018-09-27T01:19:46.908Z,0
2018-09-27T01:20:54.972Z,0
2018-09-27T01:22:03.003Z,0
2018-09-27T01:23:11.083Z,0
2018-09-27T01:24:19.142Z,0
2018-09-27T01:25:27.205Z,0
2018-09-27T01:26:35.259Z,0
2018-09-27T01:27:43.291Z,0
2018-09-27T01:28:51.385Z,0
2018-09-27T01:29:59.428Z,0
2018-09-27T01:31:07.488Z,0
2018-09-27T01:32:15.557Z,0
2018-09-27T01:33:23.601Z,0
2018-09-27T01:34:31.671Z,0
2018-09-27T01:35:39.736Z,0
2018-09-27T01:36:47.779Z,0
2018-09-27T01:37:55.846Z,0
2018-09-27T01:39:03.898Z,0
2018-09-27T01:40:11.971Z,0
2018-09-27T01:41:20.059Z,0
2018-09-27T01:42:28.088Z,0
2018-09-27T01:43:36.180Z,0
2018-09-27T01:44:44.197Z,0
2018-09-27T01:45:52.254Z,0
2018-09-27T01:47:00.354Z,0
2018-09-27T01:48:08.376Z,0
2018-09-27T01:49:16.444Z,0
2018-09-27T01:50:24.483Z,0
2018-09-27T01:51:32.533Z,0
2018-09-27T01:52:40.626Z,0
2018-09-27T01:53:48.660Z,0
2018-09-27T01:54:56.726Z,0
2018-09-27T01:56:04.787Z,0
2018-09-27T01:57:12.816Z,0
2018-09-27T01:58:20.904Z,0
2018-09-27T01:59:28.957Z,0
2018-09-27T02:00:37.028Z,0
2018-09-27T02:01:45.078Z,0
2018-09-27T02:02:53.103Z,0
2018-09-27T02:04:01.199Z,0
2018-09-27T02:05:09.261Z,0
2018-09-27T02:06:17.301Z,0
2018-09-27T02:07:25.364Z,0
2018-09-27T02:08:33.408Z,0
2018-09-27T02:09:41.493Z,0
2018-09-27T02:10:49.541Z,0
2018-09-27T02:11:57.608Z,0
2018-09-27T02:13:05.659Z,0
2018-09-27T02:14:13.725Z,0
2018-09-27T02:15:21.768Z,0
2018-09-27T02:16:29.837Z,0
2018-09-27T02:17:37.907Z,0
2018-09-27T02:18:45.951Z,0
2018-09-27T02:19:54.014Z,0
2018-09-27T02:21:02.075Z,0
2018-09-27T02:22:10.127Z,0
2018-09-27T02:23:18.192Z,0
2018-09-27T02:24:26.255Z,0
2018-09-27T02:25:34.291Z,0
2018-09-27T02:26:42.355Z,0
2018-09-27T02:27:50.432Z,0
2018-09-27T02:28:58.469Z,0
2018-09-27T02:30:06.553Z,0
2018-09-27T02:31:14.599Z,0
2018-09-27T02:32:22.643Z,0
2018-09-27T02:33:30.727Z,0
2018-09-27T02:34:38.785Z,0
2018-09-27T02:35:46.837Z,0
2018-09-27T02:36:54.886Z,0
2018-09-27T02:38:02.923Z,0
2018-09-27T02:39:11.015Z,0
2018-09-27T02:40:19.057Z,0
2018-09-27T02:41:27.129Z,0
2018-09-27T02:42:35.188Z,0
2018-09-27T02:43:43.215Z,0
2018-09-27T02:44:51.295Z,0
2018-09-27T02:45:59.357Z,0
2018-09-27T02:47:07.557Z,0
2018-09-27T02:48:15.480Z,0
2018-09-27T02:49:23.523Z,0
2018-09-27T02:50:31.595Z,0
2018-09-27T02:51:39.661Z,0
2018-09-27T02:52:47.712Z,0
2018-09-27T02:53:55.773Z,0
2018-09-27T02:55:03.827Z,0
2018-09-27T02:56:11.878Z,0
2018-09-27T02:57:19.949Z,0
2018-09-27T02:58:27.999Z,0
2018-09-27T02:59:36.068Z,0
2018-09-27T03:00:44.112Z,0
2018-09-27T03:01:52.176Z,0
2018-09-27T03:03:00.232Z,0
2018-09-27T03:04:08.287Z,0
2018-09-27T03:05:16.357Z,0
2018-09-27T03:06:24.405Z,0
2018-09-27T03:07:32.458Z,0
2018-09-27T03:08:40.518Z,0
2018-09-27T03:09:48.580Z,0
2018-09-27T03:10:56.658Z,0
2018-09-27T03:12:04.716Z,0
2018-09-27T03:13:12.725Z,0
2018-09-27T03:14:20.820Z,0
2018-09-27T03:15:28.882Z,0
2018-09-27T03:16:36.930Z,0
2018-09-27T03:17:44.986Z,0
2018-09-27T03:18:53.020Z,0
2018-09-27T03:20:01.115Z,0
2018-09-27T03:21:09.159Z,0
2018-09-27T03:22:17.201Z,0
2018-09-27T03:23:25.281Z,0
2018-09-27T03:24:33.304Z,0
2018-09-27T03:25:41.387Z,0
2018-09-27T03:26:49.462Z,0
2018-09-27T03:27:57.517Z,0
2018-09-27T03:29:05.598Z,0
2018-09-27T03:30:13.649Z,0
2018-09-27T03:31:21.723Z,0
2018-09-27T03:32:29.767Z,0
2018-09-27T03:33:37.836Z,0
2018-09-27T03:34:45.891Z,0
2018-09-27T03:35:53.928Z,0
2018-09-27T03:37:01.975Z,0
2018-09-27T03:38:10.042Z,0
2018-09-27T03:39:18.093Z,0
2018-09-27T03:40:26.165Z,0
2018-09-27T03:41:34.198Z,0
2018-09-27T03:42:42.276Z,0
2018-09-27T03:43:50.333Z,0
2018-09-27T03:44:58.387Z,0
2018-09-27T03:46:06.440Z,0
2018-09-27T03:47:14.493Z,0
2018-09-27T03:48:22.540Z,0
2018-09-27T03:49:30.621Z,0
2018-09-27T03:50:38.681Z,0
2018-09-27T03:51:46.737Z,0
2018-09-27T03:52:54.777Z,0
2018-09-27T03:54:02.826Z,0
2018-09-27T03:55:10.908Z,0
2018-09-27T03:56:18.964Z,0
2018-09-27T03:57:27.029Z,0
2018-09-27T03:58:35.080Z,0
2018-09-27T03:59:43.107Z,0
2018-09-27T04:00:51.193Z,0
2018-09-27T04:01:59.254Z,0
2018-09-27T04:03:07.350Z,0
2018-09-27T04:04:15.366Z,0
2018-09-27T04:05:23.409Z,0
2018-09-27T04:06:31.486Z,0
2018-09-27T04:07:39.548Z,0
2018-09-27T04:08:47.653Z,0
2018-09-27T04:09:55.669Z,0
2018-09-27T04:11:03.723Z,0
2018-09-27T04:12:11.780Z,0
2018-09-27T04:13:19.833Z,0
2018-09-27T04:14:27.886Z,0
2018-09-27T04:15:36.712Z,0
2018-09-27T04:16:44.016Z,0
2018-09-27T04:17:52.085Z,0
2018-09-27T04:19:00.125Z,0
2018-09-27T04:20:08.324Z,0
2018-09-27T04:21:16.884Z,0
2018-09-27T04:22:24.304Z,0
2018-09-27T04:23:32.551Z,0
2018-09-27T04:24:40.417Z,0
2018-09-27T04:25:48.898Z,0
2018-09-27T04:26:56.527Z,0
2018-09-27T04:28:04.597Z,0
2018-09-27T04:29:12.628Z,0
2018-09-27T04:30:20.711Z,0
2018-09-27T04:31:28.773Z,0
2018-09-27T04:32:36.835Z,0
2018-09-27T04:33:44.922Z,0
2018-09-27T04:34:52.912Z,0
2018-09-27T04:36:01.009Z,0
2018-09-27T04:37:09.047Z,0
2018-09-27T04:38:17.127Z,0
2018-09-27T04:39:25.178Z,0
2018-09-27T04:40:33.382Z,0
2018-09-27T04:41:41.335Z,0
2018-09-27T04:42:49.641Z,0
2018-09-27T04:43:57.895Z,0
2018-09-27T04:45:05.526Z,0
2018-09-27T04:46:13.612Z,0
2018-09-27T04:47:21.584Z,4
2018-09-27T04:48:29.642Z,0
2018-09-27T04:49:37.712Z,4
2018-09-27T04:50:45.752Z,4
2018-09-27T04:51:53.844Z,4
2018-09-27T04:53:01.902Z,8
2018-09-27T04:54:09.921Z,8
2018-09-27T04:55:18.012Z,8
2018-09-27T04:56:26.279Z,12
2018-09-27T04:57:34.389Z,16
2018-09-27T04:58:42.439Z,16
2018-09-27T04:59:50.297Z,20
2018-09-27T05:00:58.307Z,28
2018-09-27T05:02:06.363Z,36
2018-09-27T05:03:14.437Z,44
2018-09-27T05:04:22.484Z,48
2018-09-27T05:05:31.248Z,60
2018-09-27T05:06:38.996Z,72
2018-09-27T05:07:46.710Z,84
2018-09-27T05:08:54.728Z,100
2018-09-27T05:10:02.758Z,112
2018-09-27T05:11:10.853Z,132
2018-09-27T05:12:18.884Z,156
2018-09-27T05:13:26.966Z,176
2018-09-27T05:14:35.023Z,200
2018-09-27T05:15:43.179Z,224
2018-09-27T05:16:51.131Z,252
2018-09-27T05:17:59.196Z,280
2018-09-27T05:19:07.249Z,312
2018-09-27T05:20:15.310Z,340
2018-09-27T05:21:23.391Z,376
2018-09-27T05:22:31.417Z,408
2018-09-27T05:23:39.474Z,444
2018-09-27T05:24:47.545Z,484
2018-09-27T05:25:55.577Z,524
2018-09-27T05:27:03.682Z,564
2018-09-27T05:28:11.729Z,604
2018-09-27T05:29:19.772Z,648
2018-09-27T05:30:27.832Z,688
2018-09-27T05:31:35.878Z,732
2018-09-27T05:32:43.924Z,772
2018-09-27T05:33:51.990Z,820
2018-09-27T05:35:12.250Z,868
2018-09-27T05:36:09.509Z,912
2018-09-27T05:37:17.569Z,960
2018-09-27T05:38:25.620Z,1004
2018-09-27T05:39:33.703Z,1052
2018-09-27T05:40:41.746Z,1096
2018-09-27T05:41:49.796Z,1140
2018-09-27T05:42:57.892Z,1184
2018-09-27T05:44:05.915Z,1228
2018-09-27T05:45:20.857Z,1284
2018-09-27T05:46:28.923Z,1328
2018-09-27T05:47:36.956Z,1372
2018-09-27T05:48:45.015Z,1416
2018-09-27T05:49:53.090Z,1468
2018-09-27T05:51:01.141Z,1512
2018-09-27T05:52:09.194Z,1560
2018-09-27T05:53:17.236Z,1616
2018-09-27T05:54:25.303Z,1668
2018-09-27T05:55:33.339Z,1712
2018-09-27T05:56:41.426Z,1756
2018-09-27T05:57:49.485Z,1800
2018-09-27T05:58:57.532Z,1848
2018-09-27T06:00:05.601Z,1900
2018-09-27T06:01:13.649Z,2008
2018-09-27T06:02:21.721Z,2004
2018-09-27T06:03:29.818Z,2032
2018-09-27T06:04:37.827Z,2092
2018-09-27T06:05:45.898Z,2136
2018-09-27T06:06:53.950Z,2124
2018-09-27T06:08:05.047Z,2156
2018-09-27T06:09:10.053Z,2196
2018-09-27T06:10:18.111Z,2232
2018-09-27T06:11:26.302Z,2264
2018-09-27T06:12:34.236Z,2300
2018-09-27T06:13:42.307Z,2344
2018-09-27T06:14:50.361Z,2388
2018-09-27T06:15:58.418Z,2424
2018-09-27T06:17:06.476Z,2460
2018-09-27T06:18:14.531Z,2492
2018-09-27T06:19:22.646Z,2520
2018-09-27T06:20:30.638Z,2544
2018-09-27T06:21:38.858Z,2576
2018-09-27T06:22:46.760Z,2756
2018-09-27T06:23:54.822Z,2744
2018-09-27T06:25:02.850Z,2796
2018-09-27T06:26:11.024Z,3528
2018-09-27T06:27:19.003Z,2908
2018-09-27T06:28:27.054Z,3092
2018-09-27T06:29:35.114Z,3440
2018-09-27T06:30:43.186Z,2980
2018-09-27T06:31:51.232Z,3116
2018-09-27T06:32:59.300Z,3388
2018-09-27T06:34:07.556Z,3584
2018-09-27T06:35:15.620Z,3272
2018-09-27T06:36:23.674Z,3160
2018-09-27T06:37:31.740Z,3468
2018-09-27T06:38:39.835Z,3920
2018-09-27T06:39:47.859Z,4528
2018-09-27T06:40:55.907Z,4444
2018-09-27T06:42:03.974Z,5096
2018-09-27T06:43:12.023Z,4396
2018-09-27T06:44:20.093Z,3768
2018-09-27T06:45:28.146Z,3388
2018-09-27T06:46:36.202Z,3404
2018-09-27T06:47:44.282Z,3860
2018-09-27T06:48:52.408Z,4040
2018-09-27T06:50:00.381Z,5008
2018-09-27T06:51:08.464Z,6976
2018-09-27T06:52:16.505Z,5376
2018-09-27T06:53:24.563Z,5180
2018-09-27T06:54:32.611Z,5996
2018-09-27T06:55:40.933Z,6268
2018-09-27T06:56:48.745Z,5664
2018-09-27T06:57:56.811Z,4788
2018-09-27T06:59:04.866Z,6476
2018-09-27T07:00:12.896Z,9324
2018-09-27T07:01:20.988Z,10472
2018-09-27T07:02:29.060Z,9180
2018-09-27T07:03:37.118Z,11920
2018-09-27T07:04:45.211Z,11268
2018-09-27T07:05:55.021Z,13884
2018-09-27T07:07:02.982Z,16704
2018-09-27T07:08:10.972Z,16960
2018-09-27T07:09:19.031Z,17920
2018-09-27T07:10:27.088Z,17856
2018-09-27T07:11:35.159Z,18400
2018-09-27T07:12:43.218Z,18560
2018-09-27T07:13:51.276Z,19072
2018-09-27T07:14:59.341Z,18816
2018-09-27T07:16:07.410Z,18112
2018-09-27T07:17:15.463Z,17408
2018-09-27T07:18:23.531Z,17344
2018-09-27T07:19:37.855Z,17824
2018-09-27T07:20:43.918Z,18208
2018-09-27T07:21:59.134Z,18496
2018-09-27T07:23:07.102Z,18688
2018-09-27T07:24:17.588Z,18880
2018-09-27T07:25:25.649Z,18816
2018-09-27T07:26:33.791Z,18752
2018-09-27T07:27:41.791Z,20288
2018-09-27T07:28:49.842Z,22592
2018-09-27T07:29:57.919Z,24256
2018-09-27T07:31:05.991Z,25600
2018-09-27T07:32:14.043Z,25952
2018-09-27T07:33:22.106Z,26048
2018-09-27T07:34:30.170Z,27616
2018-09-27T07:35:40.869Z,30144
2018-09-27T07:36:48.952Z,36000
2018-09-27T07:37:57.004Z,35520
2018-09-27T07:39:07.680Z,35296
2018-09-27T07:40:13.756Z,31552
2018-09-27T07:41:21.816Z,31680
2018-09-27T07:42:29.983Z,34880
2018-09-27T07:43:37.959Z,28384
2018-09-27T07:44:46.023Z,17376
2018-09-27T07:45:54.109Z,17632
2018-09-27T07:47:02.165Z,14392
2018-09-27T07:48:10.226Z,14008
2018-09-27T07:49:18.309Z,19456
2018-09-27T07:50:26.401Z,18016
2018-09-27T07:51:34.453Z,12624
2018-09-27T07:52:42.510Z,20832
2018-09-27T07:53:50.588Z,34528
2018-09-27T07:54:58.652Z,38720
2018-09-27T07:56:06.720Z,40224
2018-09-27T07:57:14.782Z,39072
2018-09-27T07:58:22.838Z,28256
2018-09-27T07:59:30.924Z,17696
2018-09-27T08:00:38.999Z,23552
2018-09-27T08:01:47.059Z,15488
2018-09-27T08:02:55.238Z,8220
2018-09-27T08:04:03.234Z,10800
2018-09-27T08:05:11.273Z,12372
2018-09-27T08:06:21.734Z,11636
2018-09-27T08:07:31.844Z,8952
2018-09-27T08:08:40.232Z,23872
2018-09-27T08:09:48.172Z,31840
2018-09-27T08:10:56.473Z,39424
2018-09-27T08:12:04.505Z,22976
2018-09-27T08:13:12.561Z,16832
2018-09-27T08:14:20.671Z,22656
2018-09-27T08:15:28.717Z,28512
2018-09-27T08:16:36.791Z,23264
2018-09-27T08:17:44.845Z,21856
2018-09-27T08:18:52.893Z,18368
2018-09-27T08:20:00.983Z,18368
2018-09-27T08:21:09.217Z,8864
2018-09-27T08:22:17.126Z,4068
2018-09-27T08:23:25.176Z,3992
2018-09-27T08:24:33.248Z,4020
2018-09-27T08:25:41.328Z,3976
2018-09-27T08:26:49.399Z,3952
2018-09-27T08:27:57.472Z,3972
2018-09-27T08:29:05.529Z,3944
2018-09-27T08:30:19.923Z,3952
2018-09-27T08:31:21.680Z,3888
2018-09-27T08:32:29.738Z,3884
2018-09-27T08:33:37.806Z,3888
2018-09-27T08:34:45.883Z,3888
2018-09-27T08:35:53.948Z,3852
2018-09-27T08:37:02.010Z,3844
2018-09-27T08:38:10.083Z,3820
2018-09-27T08:39:18.144Z,3840
2018-09-27T08:40:26.200Z,3860
2018-09-27T08:41:34.255Z,3876
2018-09-27T08:42:42.330Z,3844
2018-09-27T08:43:50.430Z,3840
2018-09-27T08:44:58.679Z,3836
2018-09-27T08:46:06.537Z,3856
2018-09-27T08:47:14.593Z,3932
2018-09-27T08:48:22.632Z,3868
2018-09-27T08:49:30.722Z,3932
2018-09-27T08:50:38.795Z,3892
2018-09-27T08:51:46.866Z,3872
2018-09-27T08:52:54.925Z,3880
2018-09-27T08:54:02.966Z,3868
2018-09-27T08:55:11.062Z,3864
2018-09-27T08:56:19.138Z,3876
2018-09-27T08:57:27.239Z,3868
2018-09-27T08:58:35.250Z,3848
2018-09-27T08:59:43.297Z,3788
2018-09-27T09:00:51.377Z,3800
2018-09-27T09:01:59.441Z,3868
2018-09-27T09:03:07.519Z,3876
2018-09-27T09:04:15.576Z,3868
2018-09-27T09:05:23.637Z,3872
2018-09-27T09:06:31.707Z,3844
2018-09-27T09:07:39.894Z,3776
2018-09-27T09:08:47.845Z,3760
2018-09-27T09:09:55.907Z,3740
2018-09-27T09:11:03.967Z,3620
2018-09-27T09:12:12.121Z,3620
2018-09-27T09:13:20.096Z,3632
2018-09-27T09:14:28.164Z,3672
2018-09-27T09:15:36.349Z,3680
2018-09-27T09:16:44.282Z,3632
2018-09-27T09:17:52.353Z,3656
2018-09-27T09:19:00.431Z,3684
2018-09-27T09:20:08.485Z,3648
2018-09-27T09:21:16.554Z,3608
2018-09-27T09:22:24.631Z,3584
2018-09-27T09:23:32.676Z,3588
2018-09-27T09:24:40.802Z,3560
2018-09-27T09:25:48.888Z,3552
2018-09-27T09:26:56.884Z,3576
2018-09-27T09:28:04.954Z,3576
2018-09-27T09:29:12.986Z,3556
2018-09-27T09:30:21.080Z,3548
2018-09-27T09:31:29.140Z,3536
2018-09-27T09:32:37.221Z,3516
2018-09-27T09:33:45.307Z,3504
2018-09-27T09:34:53.321Z,3508
2018-09-27T09:36:01.487Z,3500
2018-09-27T09:37:09.480Z,3476
2018-09-27T09:38:17.540Z,3480
2018-09-27T09:39:25.599Z,3468
2018-09-27T09:40:33.669Z,3452
2018-09-27T09:41:41.746Z,3440
2018-09-27T09:42:49.799Z,3416
2018-09-27T09:43:57.871Z,3408
2018-09-27T09:45:05.938Z,3384
2018-09-27T09:46:14.014Z,3412
2018-09-27T09:47:22.070Z,3432
2018-09-27T09:48:30.143Z,3436
2018-09-27T09:49:38.193Z,3428
2018-09-27T09:50:46.270Z,3424
2018-09-27T09:51:54.335Z,3408
2018-09-27T09:53:02.399Z,3392
2018-09-27T09:54:10.467Z,3364
2018-09-27T09:55:18.530Z,3364
2018-09-27T09:56:26.585Z,3348
2018-09-27T09:57:34.666Z,3336
2018-09-27T09:58:42.705Z,3328
2018-09-27T09:59:50.795Z,3328
2018-09-27T10:00:58.856Z,3336
2018-09-27T10:02:06.925Z,3332
2018-09-27T10:03:14.994Z,3336
2018-09-27T10:04:23.036Z,3332
2018-09-27T10:05:31.122Z,3340
2018-09-27T10:06:39.188Z,3328
2018-09-27T10:07:47.263Z,3312
2018-09-27T10:08:55.396Z,3288
2018-09-27T10:10:03.373Z,3280
2018-09-27T10:11:11.452Z,3288
2018-09-27T10:12:19.534Z,3268
2018-09-27T10:13:27.595Z,3272
2018-09-27T10:14:35.649Z,3296
2018-09-27T10:15:43.719Z,3304
2018-09-27T10:16:51.799Z,3312
2018-09-27T10:17:59.871Z,3284
2018-09-27T10:19:07.938Z,3272
2018-09-27T10:20:15.988Z,3264
2018-09-27T10:21:24.048Z,3268
2018-09-27T10:22:32.133Z,3264
2018-09-27T10:23:40.195Z,3264
2018-09-27T10:24:48.309Z,3268
2018-09-27T10:25:56.340Z,3276
2018-09-27T10:27:04.383Z,3292
2018-09-27T10:28:12.459Z,3296
2018-09-27T10:29:20.527Z,3300
2018-09-27T10:30:28.611Z,3308
2018-09-27T10:31:36.716Z,3300
2018-09-27T10:32:44.746Z,3292
2018-09-27T10:33:52.783Z,3272
2018-09-27T10:35:00.864Z,3244
2018-09-27T10:36:08.931Z,3232
2018-09-27T10:37:16.998Z,3244
2018-09-27T10:38:25.062Z,3240
2018-09-27T10:39:33.114Z,3224
2018-09-27T10:40:41.190Z,3208
2018-09-27T10:41:49.262Z,3200
2018-09-27T10:42:57.330Z,3188
2018-09-27T10:44:05.398Z,3188
2018-09-27T10:45:13.422Z,3188
2018-09-27T10:46:21.520Z,3180
2018-09-27T10:47:29.582Z,3180
2018-09-27T10:48:37.645Z,3176
2018-09-27T10:49:45.707Z,3156
2018-09-27T10:50:53.787Z,3152
2018-09-27T10:52:01.851Z,3112
2018-09-27T10:53:09.921Z,3096
2018-09-27T10:54:17.988Z,3092
2018-09-27T10:55:26.051Z,3096
2018-09-27T10:56:34.107Z,3080
2018-09-27T10:57:51.732Z,3092
2018-09-27T11:03:11.039Z,3048
2018-09-27T11:04:19.110Z,3044
2018-09-27T11:05:27.230Z,3036
2018-09-27T11:06:35.233Z,3028
2018-09-27T11:07:43.273Z,3032
2018-09-27T11:08:51.366Z,3028
2018-09-27T11:09:59.433Z,3024
2018-09-27T11:11:07.634Z,3024
2018-09-27T11:12:15.568Z,3036
2018-09-27T11:13:23.640Z,3040
2018-09-27T11:14:31.722Z,3028
2018-09-27T11:15:39.784Z,3000
2018-09-27T11:16:47.851Z,2988
2018-09-27T11:17:55.919Z,3000
2018-09-27T11:19:03.981Z,3012
2018-09-27T11:20:12.052Z,3000
2018-09-27T11:21:20.120Z,3000
2018-09-27T11:22:28.285Z,2996
2018-09-27T11:23:36.256Z,3008
2018-09-27T11:24:44.318Z,3008
2018-09-27T11:25:52.402Z,3000
2018-09-27T11:27:00.475Z,2984
2018-09-27T11:28:08.538Z,2984
2018-09-27T11:29:16.595Z,2980
2018-09-27T11:30:24.659Z,2976
2018-09-27T11:31:32.705Z,2972
2018-09-27T11:32:40.797Z,2964
2018-09-27T11:33:49.463Z,2952
2018-09-27T11:34:56.931Z,2936
2018-09-27T11:36:04.994Z,2928
2018-09-27T11:37:13.032Z,2924
2018-09-27T11:38:21.132Z,2916
2018-09-27T11:39:29.210Z,2904
2018-09-27T11:40:37.289Z,2912
2018-09-27T11:41:45.345Z,2924
2018-09-27T11:42:53.427Z,2928
2018-09-27T11:44:01.513Z,2928
2018-09-27T11:45:09.576Z,2912
2018-09-27T11:46:17.623Z,2900
2018-09-27T11:47:26.094Z,2896
2018-09-27T11:48:33.744Z,2892
2018-09-27T11:49:42.022Z,2896
2018-09-27T11:50:49.894Z,2888
2018-09-27T11:51:57.958Z,2876
2018-09-27T11:53:06.017Z,2868
2018-09-27T11:54:14.090Z,2864
2018-09-27T11:55:22.144Z,2864
2018-09-27T11:56:30.237Z,2868
2018-09-27T11:57:40.918Z,2872
2018-09-27T11:58:48.997Z,2860
2018-09-27T11:59:57.040Z,2848
2018-09-27T12:01:05.110Z,2840
2018-09-27T12:02:13.148Z,2824
2018-09-27T12:03:21.247Z,2812
2018-09-27T12:04:29.323Z,2812
2018-09-27T12:05:37.392Z,2808
2018-09-27T12:06:45.556Z,2812
2018-09-27T12:07:53.509Z,2808
2018-09-27T12:14:07.200Z,2760
2018-09-27T12:15:15.264Z,2760
2018-09-27T12:16:23.300Z,2760
2018-09-27T12:17:32.797Z,2764
2018-09-27T12:18:39.471Z,2760
2018-09-27T12:19:47.702Z,2748
2018-09-27T12:20:55.615Z,2736
2018-09-27T12:22:03.655Z,2724
2018-09-27T12:23:11.872Z,2724
2018-09-27T12:24:19.814Z,2728
2018-09-27T12:25:27.885Z,2728
2018-09-27T12:26:35.946Z,2732
2018-09-27T12:27:44.011Z,2728
2018-09-27T12:28:52.080Z,2724
2018-09-27T12:30:00.155Z,2716
2018-09-27T12:31:08.268Z,2712
2018-09-27T12:32:16.292Z,2708
2018-09-27T12:33:25.778Z,2704
2018-09-27T12:34:37.086Z,2704
2018-09-27T12:35:42.096Z,2704
2018-09-27T12:36:50.174Z,2704
2018-09-27T12:37:58.248Z,2708
2018-09-27T12:39:06.311Z,2712
2018-09-27T12:40:14.388Z,2708
2018-09-27T12:41:22.458Z,2708
2018-09-27T12:42:30.558Z,2704
2018-09-27T12:43:38.595Z,2700
2018-09-27T12:44:46.646Z,2696
2018-09-27T12:45:54.774Z,2692
2018-09-27T12:47:02.935Z,2692
2018-09-27T12:48:10.935Z,2692
2018-09-27T12:49:18.928Z,2692
2018-09-27T12:50:27.016Z,2684
2018-09-27T12:51:35.169Z,2676
2018-09-27T12:52:43.120Z,2672
2018-09-27T12:53:51.200Z,2668
2018-09-27T12:54:59.257Z,2664
2018-09-27T12:56:07.360Z,2660
2018-09-27T12:57:15.428Z,2660
2018-09-27T12:58:23.499Z,2656
2018-09-27T12:59:31.550Z,2652
2018-09-27T13:00:39.621Z,2656
2018-09-27T13:01:47.767Z,2656
2018-09-27T13:02:55.874Z,2652
2018-09-27T13:04:03.939Z,2652
2018-09-27T13:05:11.883Z,2648
2018-09-27T13:06:19.942Z,2644
2018-09-27T13:07:28.021Z,2636
2018-09-27T13:08:36.250Z,2632
2018-09-27T13:09:44.275Z,2632
2018-09-27T13:10:52.226Z,2628
2018-09-27T13:12:00.389Z,2624
2018-09-27T13:13:08.416Z,2620
2018-09-27T13:14:16.434Z,2620
2018-09-27T13:15:24.498Z,2616
2018-09-27T13:16:32.554Z,2616
2018-09-27T13:17:40.723Z,2620
2018-09-27T13:18:48.712Z,2616
2018-09-27T13:19:56.857Z,2616
2018-09-27T13:21:04.842Z,2620
2018-09-27T13:22:12.890Z,2616
2018-09-27T13:23:20.983Z,2612
2018-09-27T13:24:29.069Z,2612
2018-09-27T13:25:37.201Z,2612
2018-09-27T13:26:45.259Z,2608
2018-09-27T13:27:53.227Z,2604
2018-09-27T13:29:01.323Z,2604
2018-09-27T13:30:09.447Z,2600
2018-09-27T13:31:17.454Z,2600
2018-09-27T13:32:25.526Z,2596
2018-09-27T13:33:33.600Z,2592
2018-09-27T13:34:41.673Z,2588
2018-09-27T13:35:49.740Z,2584
2018-09-27T13:36:57.831Z,2584
2018-09-27T13:38:05.862Z,2584
2018-09-27T13:39:14.035Z,2588
2018-09-27T13:40:22.014Z,2588
2018-09-27T13:41:30.075Z,2588
2018-09-27T13:42:38.141Z,2588
2018-09-27T13:43:46.219Z,2588
2018-09-27T13:44:54.309Z,2584
2018-09-27T13:46:02.349Z,2576
2018-09-27T13:47:10.415Z,2576
2018-09-27T13:48:18.495Z,2576
2018-09-27T13:49:26.567Z,2576
2018-09-27T13:50:34.629Z,2572
2018-09-27T13:51:42.676Z,2568
2018-09-27T13:52:50.762Z,2560
2018-09-27T13:53:58.833Z,2560
2018-09-27T13:55:07.080Z,2552
2018-09-27T13:56:14.973Z,2544
2018-09-27T13:57:23.079Z,2540
2018-09-27T13:58:31.091Z,2540
2018-09-27T13:59:39.190Z,2536
2018-09-27T14:00:47.241Z,2532
2018-09-27T14:01:55.312Z,2532
2018-09-27T14:03:03.373Z,2532
2018-09-27T14:04:11.444Z,2520
2018-09-27T14:05:19.607Z,2516
2018-09-27T14:06:27.585Z,2508
2018-09-27T14:07:35.648Z,2500
2018-09-27T14:08:43.722Z,2496
2018-09-27T14:09:51.793Z,2492
2018-09-27T14:10:59.862Z,2488
2018-09-27T14:12:07.921Z,2484
2018-09-27T14:13:15.993Z,2484
2018-09-27T14:14:24.096Z,2488
2018-09-27T14:15:32.144Z,2492
2018-09-27T14:16:40.196Z,2488
2018-09-27T14:17:48.266Z,2488
2018-09-27T14:18:56.330Z,2484
2018-09-27T14:20:04.407Z,2480
2018-09-27T14:21:12.463Z,2476
2018-09-27T14:22:20.547Z,2468
2018-09-27T14:23:28.613Z,2468
2018-09-27T14:24:36.885Z,2464
2018-09-27T14:25:45.024Z,2460
2018-09-27T14:26:52.993Z,2460
2018-09-27T14:28:01.134Z,2456
2018-09-27T14:29:09.152Z,2452
2018-09-27T14:30:17.219Z,2448
2018-09-27T14:31:25.291Z,2440
2018-09-27T14:32:33.331Z,2432
2018-09-27T14:33:41.424Z,2428
2018-09-27T14:34:49.495Z,2420
2018-09-27T14:35:57.550Z,2416
2018-09-27T14:37:05.627Z,2408
2018-09-27T14:38:13.700Z,2408
2018-09-27T14:39:21.764Z,2404
2018-09-27T14:40:29.832Z,2400
2018-09-27T14:41:37.985Z,2396
2018-09-27T14:42:46.098Z,2396
2018-09-27T14:43:54.038Z,2392
2018-09-27T14:45:02.106Z,2384
2018-09-27T14:46:10.173Z,2380
2018-09-27T14:47:18.241Z,2372
2018-09-27T14:48:26.325Z,2364
2018-09-27T14:49:34.374Z,2360
2018-09-27T14:50:42.440Z,2356
2018-09-27T14:51:50.529Z,2352
2018-09-27T14:52:58.590Z,2352
2018-09-27T14:54:06.655Z,2352
2018-09-27T14:55:14.728Z,2344
2018-09-27T14:56:22.847Z,2340
2018-09-27T14:57:30.860Z,2332
2018-09-27T14:58:38.984Z,2324
2018-09-27T14:59:47.002Z,2324
2018-09-27T15:00:55.129Z,2320
2018-09-27T15:02:03.169Z,2316
2018-09-27T15:03:11.195Z,2312
2018-09-27T15:04:19.262Z,2308
2018-09-27T15:05:27.338Z,2300
2018-09-27T15:06:35.410Z,2296
2018-09-27T15:07:43.445Z,2288
2018-09-27T15:08:51.545Z,2284
2018-09-27T15:09:59.772Z,2272
2018-09-27T15:11:07.688Z,2264
2018-09-27T15:12:15.753Z,2260
2018-09-27T15:13:23.814Z,2252
2018-09-27T15:14:31.941Z,2244
2018-09-27T15:15:39.952Z,2240
2018-09-27T15:16:48.018Z,2228
2018-09-27T15:17:56.118Z,2220
2018-09-27T15:19:04.147Z,2216
2018-09-27T15:20:12.213Z,2204
2018-09-27T15:21:20.293Z,2196
2018-09-27T15:22:28.363Z,2184
2018-09-27T15:23:36.527Z,2176
2018-09-27T15:24:44.506Z,2164
2018-09-27T15:25:52.536Z,2156
2018-09-27T15:27:00.634Z,2148
2018-09-27T15:28:08.699Z,2140
2018-09-27T15:29:16.804Z,2132
2018-09-27T15:30:24.841Z,2128
2018-09-27T15:31:32.912Z,2120
2018-09-27T15:32:40.971Z,2108
2018-09-27T15:33:49.038Z,2100
2018-09-27T15:34:57.100Z,2088
2018-09-27T15:36:05.162Z,2080
2018-09-27T15:37:13.208Z,2072
2018-09-27T15:38:21.307Z,2060
2018-09-27T15:39:29.369Z,2052
2018-09-27T15:40:37.444Z,2036
2018-09-27T15:41:45.509Z,2028
2018-09-27T15:42:53.574Z,2016
2018-09-27T15:44:01.655Z,2008